sensor_id;sensor_type;location;lat;lon;timestamp;temperature;humidity
4435;DHT22;46552;52.150;8.428;2023-05-07T00:00:07;15.10;99.90
4435;DHT22;46552;52.150;8.428;2023-05-07T00:02:35;15.20;99.90
4435;DHT22;46552;52.150;8.428;2023-05-07T00:05:03;15.10;99.90
4435;DHT22;46552;52.150;8.428;2023-05-07T00:07:32;15.00;99.90
4435;DHT22;46552;52.150;8.428;2023-05-07T00:09:59;15.00;99.90
4435;DHT22;46552;52.150;8.428;2023-05-07T00:12:26;14.90;99.90
4435;DHT22;46552;52.150;8.428;2023-05-07T00:14:55;15.00;99.90
4435;DHT22;46552;52.150;8.428;2023-05-07T00:17:22;14.90;99.90
4435;DHT22;46552;52.150;8.428;2023-05-07T00:19:51;14.90;99.90
4435;DHT22;46552;52.150;8.428;2023-05-07T00:22:18;14.90;99.90
4435;DHT22;46552;52.150;8.428;2023-05-07T00:24:48;14.80;99.90
4435;DHT22;46552;52.150;8.428;2023-05-07T00:27:15;14.80;99.90
4435;DHT22;46552;52.150;8.428;2023-05-07T00:29:43;14.90;99.90
4435;DHT22;46552;52.150;8.428;2023-05-07T00:32:10;14.80;99.90
4435;DHT22;46552;52.150;8.428;2023-05-07T00:34:37;14.70;99.90
4435;DHT22;46552;52.150;8.428;2023-05-07T00:37:05;14.70;99.90
4435;DHT22;46552;52.150;8.428;2023-05-07T00:39:33;14.80;99.90
4435;DHT22;46552;52.150;8.428;2023-05-07T00:42:02;14.70;99.90
4435;DHT22;46552;52.150;8.428;2023-05-07T00:44:29;14.60;99.90
4435;DHT22;46552;52.150;8.428;2023-05-07T00:46:58;14.60;99.90
4435;DHT22;46552;52.150;8.428;2023-05-07T00:49:32;14.50;99.90
4435;DHT22;46552;52.150;8.428;2023-05-07T00:54:30;14.50;99.90
4435;DHT22;46552;52.150;8.428;2023-05-07T00:56:58;14.50;99.90
4435;DHT22;46552;52.150;8.428;2023-05-07T00:59:27;14.60;99.90
4435;DHT22;46552;52.150;8.428;2023-05-07T01:01:55;14.50;99.90
4435;DHT22;46552;52.150;8.428;2023-05-07T01:04:22;14.40;99.90
4435;DHT22;46552;52.150;8.428;2023-05-07T01:06:50;14.40;99.90
4435;DHT22;46552;52.150;8.428;2023-05-07T01:09:18;14.40;99.90
4435;DHT22;46552;52.150;8.428;2023-05-07T01:11:47;14.40;99.90
4435;DHT22;46552;52.150;8.428;2023-05-07T01:14:14;14.40;99.90
4435;DHT22;46552;52.150;8.428;2023-05-07T01:16:43;14.30;99.90
4435;DHT22;46552;52.150;8.428;2023-05-07T01:19:11;14.30;99.90
4435;DHT22;46552;52.150;8.428;2023-05-07T01:21:46;14.20;99.90
4435;DHT22;46552;52.150;8.428;2023-05-07T01:24:15;14.30;99.90
4435;DHT22;46552;52.150;8.428;2023-05-07T01:26:43;14.30;99.90
4435;DHT22;46552;52.150;8.428;2023-05-07T01:29:11;14.30;99.90
4435;DHT22;46552;52.150;8.428;2023-05-07T01:31:40;14.20;99.90
4435;DHT22;46552;52.150;8.428;2023-05-07T01:34:09;14.20;99.90
4435;DHT22;46552;52.150;8.428;2023-05-07T01:36:39;14.20;99.90
4435;DHT22;46552;52.150;8.428;2023-05-07T01:39:08;14.30;99.90
4435;DHT22;46552;52.150;8.428;2023-05-07T01:41:37;14.30;99.90
4435;DHT22;46552;52.150;8.428;2023-05-07T01:44:05;14.20;99.90
4435;DHT22;46552;52.150;8.428;2023-05-07T01:46:33;14.10;99.90
4435;DHT22;46552;52.150;8.428;2023-05-07T01:53:55;14.10;99.90
4435;DHT22;46552;52.150;8.428;2023-05-07T01:56:24;14.10;99.90
4435;DHT22;46552;52.150;8.428;2023-05-07T01:58:54;14.10;99.90
4435;DHT22;46552;52.150;8.428;2023-05-07T02:01:21;14.00;99.90
4435;DHT22;46552;52.150;8.428;2023-05-07T02:03:48;14.00;99.90
4435;DHT22;46552;52.150;8.428;2023-05-07T02:06:15;14.00;99.90
4435;DHT22;46552;52.150;8.428;2023-05-07T02:08:42;14.10;99.90
4435;DHT22;46552;52.150;8.428;2023-05-07T02:11:09;14.00;99.90
4435;DHT22;46552;52.150;8.428;2023-05-07T02:13:37;13.90;99.90
4435;DHT22;46552;52.150;8.428;2023-05-07T02:16:07;13.90;99.90
4435;DHT22;46552;52.150;8.428;2023-05-07T02:18:34;13.90;99.90
4435;DHT22;46552;52.150;8.428;2023-05-07T02:21:02;13.90;99.90
4435;DHT22;46552;52.150;8.428;2023-05-07T02:23:29;13.90;99.90
4435;DHT22;46552;52.150;8.428;2023-05-07T02:30:52;13.80;99.90
4435;DHT22;46552;52.150;8.428;2023-05-07T02:33:22;13.70;99.90
4435;DHT22;46552;52.150;8.428;2023-05-07T02:35:49;13.90;99.90
4435;DHT22;46552;52.150;8.428;2023-05-07T02:38:17;13.70;99.90
4435;DHT22;46552;52.150;8.428;2023-05-07T02:40:46;13.70;99.90
4435;DHT22;46552;52.150;8.428;2023-05-07T02:45:40;13.70;99.90
4435;DHT22;46552;52.150;8.428;2023-05-07T02:50:37;13.60;99.90
4435;DHT22;46552;52.150;8.428;2023-05-07T02:53:04;13.70;99.90
4435;DHT22;46552;52.150;8.428;2023-05-07T02:55:32;13.90;99.90
4435;DHT22;46552;52.150;8.428;2023-05-07T02:57:59;13.60;99.90
4435;DHT22;46552;52.150;8.428;2023-05-07T03:00:26;13.50;99.90
4435;DHT22;46552;52.150;8.428;2023-05-07T03:02:53;13.70;99.90
4435;DHT22;46552;52.150;8.428;2023-05-07T03:07:49;13.60;99.90
4435;DHT22;46552;52.150;8.428;2023-05-07T03:12:44;13.30;99.90
4435;DHT22;46552;52.150;8.428;2023-05-07T03:15:11;13.50;99.90
4435;DHT22;46552;52.150;8.428;2023-05-07T03:17:40;13.50;99.90
4435;DHT22;46552;52.150;8.428;2023-05-07T03:20:08;13.50;99.90
4435;DHT22;46552;52.150;8.428;2023-05-07T03:22:36;13.50;99.90
4435;DHT22;46552;52.150;8.428;2023-05-07T03:25:06;13.50;99.90
4435;DHT22;46552;52.150;8.428;2023-05-07T03:27:33;13.50;99.90
4435;DHT22;46552;52.150;8.428;2023-05-07T03:42:19;13.30;99.90
4435;DHT22;46552;52.150;8.428;2023-05-07T03:44:46;13.40;99.90
4435;DHT22;46552;52.150;8.428;2023-05-07T03:54:36;13.20;99.90
4435;DHT22;46552;52.150;8.428;2023-05-07T03:59:33;13.10;99.90
4435;DHT22;46552;52.150;8.428;2023-05-07T04:02:00;12.90;99.90
4435;DHT22;46552;52.150;8.428;2023-05-07T04:06:58;13.00;99.90
4435;DHT22;46552;52.150;8.428;2023-05-07T04:14:21;13.20;99.90
4435;DHT22;46552;52.150;8.428;2023-05-07T04:16:50;13.00;99.90
4435;DHT22;46552;52.150;8.428;2023-05-07T04:21:45;13.20;99.90
4435;DHT22;46552;52.150;8.428;2023-05-07T04:26:39;13.00;99.90
4435;DHT22;46552;52.150;8.428;2023-05-07T04:31:34;13.10;99.90
4435;DHT22;46552;52.150;8.428;2023-05-07T04:34:02;13.10;99.90
4435;DHT22;46552;52.150;8.428;2023-05-07T04:36:30;13.00;99.90
4435;DHT22;46552;52.150;8.428;2023-05-07T04:38:58;13.00;99.90
4435;DHT22;46552;52.150;8.428;2023-05-07T04:41:25;13.30;99.90
4435;DHT22;46552;52.150;8.428;2023-05-07T04:51:18;13.10;99.90
4435;DHT22;46552;52.150;8.428;2023-05-07T04:58:41;13.00;99.90
4435;DHT22;46552;52.150;8.428;2023-05-07T05:06:05;13.20;99.90
4435;DHT22;46552;52.150;8.428;2023-05-07T05:08:33;13.20;99.90
4435;DHT22;46552;52.150;8.428;2023-05-07T05:11:01;13.20;99.90
4435;DHT22;46552;52.150;8.428;2023-05-07T05:13:28;13.20;99.90
4435;DHT22;46552;52.150;8.428;2023-05-07T05:15:55;13.00;99.90
4435;DHT22;46552;52.150;8.428;2023-05-07T05:20:51;13.30;99.90
4435;DHT22;46552;52.150;8.428;2023-05-07T05:25:47;13.40;99.90
4435;DHT22;46552;52.150;8.428;2023-05-07T05:28:14;13.40;99.90
4435;DHT22;46552;52.150;8.428;2023-05-07T05:42:59;13.50;99.90
4435;DHT22;46552;52.150;8.428;2023-05-07T05:47:56;13.60;99.90
4435;DHT22;46552;52.150;8.428;2023-05-07T06:07:41;13.80;99.90
4435;DHT22;46552;52.150;8.428;2023-05-07T06:12:36;13.90;99.90
4435;DHT22;46552;52.150;8.428;2023-05-07T06:15:03;13.80;99.90
4435;DHT22;46552;52.150;8.428;2023-05-07T06:17:33;14.00;99.90
4435;DHT22;46552;52.150;8.428;2023-05-07T06:22:28;14.30;99.90
4435;DHT22;46552;52.150;8.428;2023-05-07T06:24:56;13.90;99.90
4435;DHT22;46552;52.150;8.428;2023-05-07T06:27:23;14.20;99.90
4435;DHT22;46552;52.150;8.428;2023-05-07T06:32:18;14.40;99.90
4435;DHT22;46552;52.150;8.428;2023-05-07T06:34:47;14.50;99.90
4435;DHT22;46552;52.150;8.428;2023-05-07T06:39:42;14.20;99.90
4435;DHT22;46552;52.150;8.428;2023-05-07T06:49:32;14.80;99.90
4435;DHT22;46552;52.150;8.428;2023-05-07T06:52:00;14.70;99.90
4435;DHT22;46552;52.150;8.428;2023-05-07T06:54:28;14.50;99.90
4435;DHT22;46552;52.150;8.428;2023-05-07T06:59:24;14.80;99.90
4435;DHT22;46552;52.150;8.428;2023-05-07T07:01:51;14.80;99.90
4435;DHT22;46552;52.150;8.428;2023-05-07T07:04:18;14.80;99.90
4435;DHT22;46552;52.150;8.428;2023-05-07T07:06:47;14.90;99.90
4435;DHT22;46552;52.150;8.428;2023-05-07T07:09:16;15.00;99.90
4435;DHT22;46552;52.150;8.428;2023-05-07T07:11:43;15.10;99.90
4435;DHT22;46552;52.150;8.428;2023-05-07T07:14:10;15.20;99.90
4435;DHT22;46552;52.150;8.428;2023-05-07T07:16:38;15.40;99.90
4435;DHT22;46552;52.150;8.428;2023-05-07T07:19:05;15.50;99.90
4435;DHT22;46552;52.150;8.428;2023-05-07T07:21:32;15.60;99.90
4435;DHT22;46552;52.150;8.428;2023-05-07T07:23:59;15.60;99.90
4435;DHT22;46552;52.150;8.428;2023-05-07T07:26:30;15.80;99.90
4435;DHT22;46552;52.150;8.428;2023-05-07T07:28:57;15.90;99.90
4435;DHT22;46552;52.150;8.428;2023-05-07T07:31:24;16.10;99.90
4435;DHT22;46552;52.150;8.428;2023-05-07T07:33:51;16.20;99.90
4435;DHT22;46552;52.150;8.428;2023-05-07T07:36:18;16.10;99.90
4435;DHT22;46552;52.150;8.428;2023-05-07T07:38:45;16.20;99.90
4435;DHT22;46552;52.150;8.428;2023-05-07T07:41:13;16.30;99.90
4435;DHT22;46552;52.150;8.428;2023-05-07T07:43:42;16.00;99.90
4435;DHT22;46552;52.150;8.428;2023-05-07T07:46:09;15.90;99.90
4435;DHT22;46552;52.150;8.428;2023-05-07T07:48:36;15.70;99.90
4435;DHT22;46552;52.150;8.428;2023-05-07T07:53:31;15.50;99.90
4435;DHT22;46552;52.150;8.428;2023-05-07T07:58:26;15.60;99.90
4435;DHT22;46552;52.150;8.428;2023-05-07T08:00:54;15.70;99.90
4435;DHT22;46552;52.150;8.428;2023-05-07T08:03:22;15.80;99.90
4435;DHT22;46552;52.150;8.428;2023-05-07T08:05:50;15.80;99.90
4435;DHT22;46552;52.150;8.428;2023-05-07T08:08:17;15.90;99.90
4435;DHT22;46552;52.150;8.428;2023-05-07T08:10:44;15.60;99.90
4435;DHT22;46552;52.150;8.428;2023-05-07T08:13:11;15.90;99.90
4435;DHT22;46552;52.150;8.428;2023-05-07T08:18:07;16.00;99.90
4435;DHT22;46552;52.150;8.428;2023-05-07T08:20:35;15.80;99.90
4435;DHT22;46552;52.150;8.428;2023-05-07T08:25:33;15.80;99.90
4435;DHT22;46552;52.150;8.428;2023-05-07T08:30:28;15.80;99.90
4435;DHT22;46552;52.150;8.428;2023-05-07T08:32:55;15.90;99.90
4435;DHT22;46552;52.150;8.428;2023-05-07T08:35:24;15.70;99.90
4435;DHT22;46552;52.150;8.428;2023-05-07T08:40:21;15.80;99.90
4435;DHT22;46552;52.150;8.428;2023-05-07T08:42:49;15.60;99.90
4435;DHT22;46552;52.150;8.428;2023-05-07T08:45:19;15.60;99.90
4435;DHT22;46552;52.150;8.428;2023-05-07T08:47:49;15.70;99.90
4435;DHT22;46552;52.150;8.428;2023-05-07T08:50:18;16.10;99.90
4435;DHT22;46552;52.150;8.428;2023-05-07T08:52:48;16.10;99.90
4435;DHT22;46552;52.150;8.428;2023-05-07T08:55:15;16.00;99.90
4435;DHT22;46552;52.150;8.428;2023-05-07T08:57:42;16.30;99.90
4435;DHT22;46552;52.150;8.428;2023-05-07T09:00:11;16.00;99.90
4435;DHT22;46552;52.150;8.428;2023-05-07T09:02:38;16.30;99.90
4435;DHT22;46552;52.150;8.428;2023-05-07T09:05:06;16.70;99.90
4435;DHT22;46552;52.150;8.428;2023-05-07T09:10:03;16.80;99.90
4435;DHT22;46552;52.150;8.428;2023-05-07T09:14:59;17.20;99.90
4435;DHT22;46552;52.150;8.428;2023-05-07T09:19:54;17.50;99.90
4435;DHT22;46552;52.150;8.428;2023-05-07T09:22:21;17.30;99.90
4435;DHT22;46552;52.150;8.428;2023-05-07T09:27:18;17.60;99.90
4435;DHT22;46552;52.150;8.428;2023-05-07T09:29:46;17.60;99.90
4435;DHT22;46552;52.150;8.428;2023-05-07T09:32:14;17.90;99.90
4435;DHT22;46552;52.150;8.428;2023-05-07T09:34:42;18.00;99.90
4435;DHT22;46552;52.150;8.428;2023-05-07T09:37:10;18.00;99.90
4435;DHT22;46552;52.150;8.428;2023-05-07T09:39:39;18.40;99.90
4435;DHT22;46552;52.150;8.428;2023-05-07T09:44:38;18.70;99.90
4435;DHT22;46552;52.150;8.428;2023-05-07T09:47:07;18.80;99.90
4435;DHT22;46552;52.150;8.428;2023-05-07T09:49:35;19.20;99.90
4435;DHT22;46552;52.150;8.428;2023-05-07T09:52:04;19.10;99.90
4435;DHT22;46552;52.150;8.428;2023-05-07T09:57:04;18.40;99.90
4435;DHT22;46552;52.150;8.428;2023-05-07T09:59:32;19.70;99.90
4435;DHT22;46552;52.150;8.428;2023-05-07T10:02:01;19.80;99.90
4435;DHT22;46552;52.150;8.428;2023-05-07T10:04:31;20.00;99.90
4435;DHT22;46552;52.150;8.428;2023-05-07T10:06:59;20.10;99.90
4435;DHT22;46552;52.150;8.428;2023-05-07T10:09:28;20.20;99.90
4435;DHT22;46552;52.150;8.428;2023-05-07T10:11:56;20.30;99.90
4435;DHT22;46552;52.150;8.428;2023-05-07T10:14:24;20.40;99.90
4435;DHT22;46552;52.150;8.428;2023-05-07T10:16:53;20.50;99.90
4435;DHT22;46552;52.150;8.428;2023-05-07T10:19:23;20.80;99.40
4435;DHT22;46552;52.150;8.428;2023-05-07T10:21:54;20.80;99.90
4435;DHT22;46552;52.150;8.428;2023-05-07T10:24:26;21.10;99.80
4435;DHT22;46552;52.150;8.428;2023-05-07T10:26:55;21.20;99.60
4435;DHT22;46552;52.150;8.428;2023-05-07T10:29:33;21.30;99.40
4435;DHT22;46552;52.150;8.428;2023-05-07T10:32:12;21.30;99.20
4435;DHT22;46552;52.150;8.428;2023-05-07T10:34:44;21.50;99.10
4435;DHT22;46552;52.150;8.428;2023-05-07T10:37:12;21.80;98.90
4435;DHT22;46552;52.150;8.428;2023-05-07T10:39:40;21.90;97.60
4435;DHT22;46552;52.150;8.428;2023-05-07T10:42:08;21.30;98.60
4435;DHT22;46552;52.150;8.428;2023-05-07T10:44:35;21.10;98.70
4435;DHT22;46552;52.150;8.428;2023-05-07T10:47:07;20.60;98.90
4435;DHT22;46552;52.150;8.428;2023-05-07T10:49:35;20.60;98.80
4435;DHT22;46552;52.150;8.428;2023-05-07T10:52:16;21.20;99.20
4435;DHT22;46552;52.150;8.428;2023-05-07T10:54:44;21.60;98.90
4435;DHT22;46552;52.150;8.428;2023-05-07T10:57:33;21.80;98.50
4435;DHT22;46552;52.150;8.428;2023-05-07T11:00:03;21.90;98.30
4435;DHT22;46552;52.150;8.428;2023-05-07T11:03:04;22.20;98.00
4435;DHT22;46552;52.150;8.428;2023-05-07T11:05:33;22.30;97.60
4435;DHT22;46552;52.150;8.428;2023-05-07T11:08:05;22.40;97.40
4435;DHT22;46552;52.150;8.428;2023-05-07T11:10:52;22.60;97.10
4435;DHT22;46552;52.150;8.428;2023-05-07T11:13:42;22.30;97.10
4435;DHT22;46552;52.150;8.428;2023-05-07T11:16:17;22.10;97.10
4435;DHT22;46552;52.150;8.428;2023-05-07T11:18:50;22.20;96.90
4435;DHT22;46552;52.150;8.428;2023-05-07T11:21:32;22.30;97.10
4435;DHT22;46552;52.150;8.428;2023-05-07T11:24:02;22.20;96.80
4435;DHT22;46552;52.150;8.428;2023-05-07T11:26:40;22.00;96.80
4435;DHT22;46552;52.150;8.428;2023-05-07T11:29:11;22.30;96.80
4435;DHT22;46552;52.150;8.428;2023-05-07T11:31:38;22.30;96.80
4435;DHT22;46552;52.150;8.428;2023-05-07T11:34:06;22.10;96.70
4435;DHT22;46552;52.150;8.428;2023-05-07T11:36:34;22.20;96.70
4435;DHT22;46552;52.150;8.428;2023-05-07T11:39:04;22.10;96.40
4435;DHT22;46552;52.150;8.428;2023-05-07T11:41:35;22.30;96.50
4435;DHT22;46552;52.150;8.428;2023-05-07T11:44:03;22.20;96.60
4435;DHT22;46552;52.150;8.428;2023-05-07T11:48:58;22.30;96.50
4435;DHT22;46552;52.150;8.428;2023-05-07T11:51:25;21.90;96.40
4435;DHT22;46552;52.150;8.428;2023-05-07T11:53:53;21.80;97.40
4435;DHT22;46552;52.150;8.428;2023-05-07T11:56:21;21.80;96.70
4435;DHT22;46552;52.150;8.428;2023-05-07T12:03:45;21.80;96.60
4435;DHT22;46552;52.150;8.428;2023-05-07T12:06:14;21.50;96.50
4435;DHT22;46552;52.150;8.428;2023-05-07T12:08:44;21.90;96.70
4435;DHT22;46552;52.150;8.428;2023-05-07T12:11:14;21.70;96.60
4435;DHT22;46552;52.150;8.428;2023-05-07T12:13:45;21.80;96.50
4435;DHT22;46552;52.150;8.428;2023-05-07T12:16:14;21.70;96.40
4435;DHT22;46552;52.150;8.428;2023-05-07T12:18:41;21.40;96.60
4435;DHT22;46552;52.150;8.428;2023-05-07T12:23:37;21.50;96.90
4435;DHT22;46552;52.150;8.428;2023-05-07T12:26:05;21.50;96.70
4435;DHT22;46552;52.150;8.428;2023-05-07T12:28:37;21.70;96.60
4435;DHT22;46552;52.150;8.428;2023-05-07T12:31:07;21.40;97.00
4435;DHT22;46552;52.150;8.428;2023-05-07T12:33:35;21.60;96.70
4435;DHT22;46552;52.150;8.428;2023-05-07T12:36:06;21.70;96.70
4435;DHT22;46552;52.150;8.428;2023-05-07T12:38:38;22.00;96.80
4435;DHT22;46552;52.150;8.428;2023-05-07T12:41:07;21.90;96.60
4435;DHT22;46552;52.150;8.428;2023-05-07T12:43:34;21.60;96.50
4435;DHT22;46552;52.150;8.428;2023-05-07T12:46:04;21.70;96.90
4435;DHT22;46552;52.150;8.428;2023-05-07T12:48:35;21.60;96.70
4435;DHT22;46552;52.150;8.428;2023-05-07T12:51:03;21.70;96.90
4435;DHT22;46552;52.150;8.428;2023-05-07T12:53:32;22.20;97.10
4435;DHT22;46552;52.150;8.428;2023-05-07T12:55:59;22.30;97.00
4435;DHT22;46552;52.150;8.428;2023-05-07T12:58:28;22.30;96.70
4435;DHT22;46552;52.150;8.428;2023-05-07T13:00:56;22.20;97.20
4435;DHT22;46552;52.150;8.428;2023-05-07T13:03:27;22.50;96.90
4435;DHT22;46552;52.150;8.428;2023-05-07T13:05:58;22.60;96.80
4435;DHT22;46552;52.150;8.428;2023-05-07T13:08:30;22.80;97.10
4435;DHT22;46552;52.150;8.428;2023-05-07T13:10:59;22.80;96.80
4435;DHT22;46552;52.150;8.428;2023-05-07T13:13:29;22.80;96.90
4435;DHT22;46552;52.150;8.428;2023-05-07T13:15:56;22.90;96.70
4435;DHT22;46552;52.150;8.428;2023-05-07T13:18:24;22.90;96.50
4435;DHT22;46552;52.150;8.428;2023-05-07T13:23:21;23.20;96.70
4435;DHT22;46552;52.150;8.428;2023-05-07T13:28:16;23.10;96.50
4435;DHT22;46552;52.150;8.428;2023-05-07T13:30:44;23.20;96.40
4435;DHT22;46552;52.150;8.428;2023-05-07T13:33:11;23.30;96.20
4435;DHT22;46552;52.150;8.428;2023-05-07T13:35:38;23.50;96.20
4435;DHT22;46552;52.150;8.428;2023-05-07T13:38:05;23.50;96.50
4435;DHT22;46552;52.150;8.428;2023-05-07T13:40:35;23.50;96.00
4435;DHT22;46552;52.150;8.428;2023-05-07T13:43:02;23.60;96.00
4435;DHT22;46552;52.150;8.428;2023-05-07T13:45:29;23.50;95.80
4435;DHT22;46552;52.150;8.428;2023-05-07T13:47:57;23.60;95.60
4435;DHT22;46552;52.150;8.428;2023-05-07T13:50:24;23.70;95.60
4435;DHT22;46552;52.150;8.428;2023-05-07T13:52:52;23.60;95.40
4435;DHT22;46552;52.150;8.428;2023-05-07T13:55:20;23.70;95.40
4435;DHT22;46552;52.150;8.428;2023-05-07T13:57:55;23.50;95.30
4435;DHT22;46552;52.150;8.428;2023-05-07T14:00:23;22.90;95.30
4435;DHT22;46552;52.150;8.428;2023-05-07T14:02:50;23.00;95.80
4435;DHT22;46552;52.150;8.428;2023-05-07T14:05:17;23.00;95.70
4435;DHT22;46552;52.150;8.428;2023-05-07T14:07:45;23.10;95.80
4435;DHT22;46552;52.150;8.428;2023-05-07T14:10:13;22.90;95.60
4435;DHT22;46552;52.150;8.428;2023-05-07T14:12:40;22.90;94.90
4435;DHT22;46552;52.150;8.428;2023-05-07T14:15:10;22.70;95.50
4435;DHT22;46552;52.150;8.428;2023-05-07T14:17:37;23.00;95.80
4435;DHT22;46552;52.150;8.428;2023-05-07T14:20:06;23.10;95.70
4435;DHT22;46552;52.150;8.428;2023-05-07T14:22:34;22.90;95.40
4435;DHT22;46552;52.150;8.428;2023-05-07T14:25:01;23.00;95.70
4435;DHT22;46552;52.150;8.428;2023-05-07T14:29:55;22.60;95.40
4435;DHT22;46552;52.150;8.428;2023-05-07T14:32:24;22.80;95.10
4435;DHT22;46552;52.150;8.428;2023-05-07T14:47:08;22.80;95.20
4435;DHT22;46552;52.150;8.428;2023-05-07T14:49:36;22.70;95.20
4435;DHT22;46552;52.150;8.428;2023-05-07T14:52:04;22.70;95.20
4435;DHT22;46552;52.150;8.428;2023-05-07T14:54:33;22.70;95.00
4435;DHT22;46552;52.150;8.428;2023-05-07T14:57:01;22.30;95.20
4435;DHT22;46552;52.150;8.428;2023-05-07T14:59:29;22.10;95.40
4435;DHT22;46552;52.150;8.428;2023-05-07T15:01:58;22.20;95.40
4435;DHT22;46552;52.150;8.428;2023-05-07T15:04:25;22.10;95.40
4435;DHT22;46552;52.150;8.428;2023-05-07T15:06:55;22.20;95.50
4435;DHT22;46552;52.150;8.428;2023-05-07T15:09:22;22.00;95.50
4435;DHT22;46552;52.150;8.428;2023-05-07T15:11:49;22.20;95.90
4435;DHT22;46552;52.150;8.428;2023-05-07T15:14:16;21.70;95.60
4435;DHT22;46552;52.150;8.428;2023-05-07T15:16:44;21.80;96.00
4435;DHT22;46552;52.150;8.428;2023-05-07T15:19:12;22.00;96.30
4435;DHT22;46552;52.150;8.428;2023-05-07T15:21:40;21.80;96.00
4435;DHT22;46552;52.150;8.428;2023-05-07T15:24:11;21.90;96.20
4435;DHT22;46552;52.150;8.428;2023-05-07T15:26:38;21.90;96.50
4435;DHT22;46552;52.150;8.428;2023-05-07T15:29:06;21.70;96.30
4435;DHT22;46552;52.150;8.428;2023-05-07T15:34:03;21.30;96.10
4435;DHT22;46552;52.150;8.428;2023-05-07T15:36:31;21.40;96.20
4435;DHT22;46552;52.150;8.428;2023-05-07T15:38:58;21.30;96.50
4435;DHT22;46552;52.150;8.428;2023-05-07T15:41:27;21.50;96.60
4435;DHT22;46552;52.150;8.428;2023-05-07T15:43:55;21.20;96.60
4435;DHT22;46552;52.150;8.428;2023-05-07T15:46:24;21.40;96.80
4435;DHT22;46552;52.150;8.428;2023-05-07T15:48:51;21.20;96.50
4435;DHT22;46552;52.150;8.428;2023-05-07T15:51:19;21.30;96.80
4435;DHT22;46552;52.150;8.428;2023-05-07T15:53:47;21.20;96.80
4435;DHT22;46552;52.150;8.428;2023-05-07T15:58:43;21.20;96.80
4435;DHT22;46552;52.150;8.428;2023-05-07T16:01:10;21.20;96.90
4435;DHT22;46552;52.150;8.428;2023-05-07T16:03:38;21.30;97.10
4435;DHT22;46552;52.150;8.428;2023-05-07T16:06:06;21.00;97.20
4435;DHT22;46552;52.150;8.428;2023-05-07T16:08:35;21.20;97.20
4435;DHT22;46552;52.150;8.428;2023-05-07T16:11:02;20.90;97.30
4435;DHT22;46552;52.150;8.428;2023-05-07T16:13:30;20.90;97.40
4435;DHT22;46552;52.150;8.428;2023-05-07T16:15:58;20.90;97.20
4435;DHT22;46552;52.150;8.428;2023-05-07T16:20:53;20.70;97.40
4435;DHT22;46552;52.150;8.428;2023-05-07T16:23:21;20.90;97.50
4435;DHT22;46552;52.150;8.428;2023-05-07T16:25:48;20.80;97.50
4435;DHT22;46552;52.150;8.428;2023-05-07T16:28:15;20.70;97.50
4435;DHT22;46552;52.150;8.428;2023-05-07T16:30:43;20.60;97.80
4435;DHT22;46552;52.150;8.428;2023-05-07T16:33:12;20.50;97.50
4435;DHT22;46552;52.150;8.428;2023-05-07T16:35:39;20.40;97.60
4435;DHT22;46552;52.150;8.428;2023-05-07T16:38:07;20.20;97.90
4435;DHT22;46552;52.150;8.428;2023-05-07T16:40:37;20.30;97.70
4435;DHT22;46552;52.150;8.428;2023-05-07T16:43:05;20.20;98.20
4435;DHT22;46552;52.150;8.428;2023-05-07T16:45:32;20.20;98.00
4435;DHT22;46552;52.150;8.428;2023-05-07T16:50:29;20.00;98.00
4435;DHT22;46552;52.150;8.428;2023-05-07T16:52:56;19.80;98.70
4435;DHT22;46552;52.150;8.428;2023-05-07T17:05:13;19.70;99.00
4435;DHT22;46552;52.150;8.428;2023-05-07T17:10:09;19.70;98.70
4435;DHT22;46552;52.150;8.428;2023-05-07T17:12:37;19.60;98.80
4435;DHT22;46552;52.150;8.428;2023-05-07T17:24:57;19.40;99.60
4435;DHT22;46552;52.150;8.428;2023-05-07T17:27:25;19.40;99.30
4435;DHT22;46552;52.150;8.428;2023-05-07T17:32:20;19.20;99.50
4435;DHT22;46552;52.150;8.428;2023-05-07T17:34:48;19.20;99.60
4435;DHT22;46552;52.150;8.428;2023-05-07T17:39:42;19.00;99.40
4435;DHT22;46552;52.150;8.428;2023-05-07T17:42:11;18.80;99.60
4435;DHT22;46552;52.150;8.428;2023-05-07T17:44:38;18.90;99.70
4435;DHT22;46552;52.150;8.428;2023-05-07T17:47:05;18.70;99.90
4435;DHT22;46552;52.150;8.428;2023-05-07T17:49:33;18.60;99.90
4435;DHT22;46552;52.150;8.428;2023-05-07T17:52:00;18.50;99.90
4435;DHT22;46552;52.150;8.428;2023-05-07T17:54:27;18.40;99.90
4435;DHT22;46552;52.150;8.428;2023-05-07T17:56:55;18.60;99.90
4435;DHT22;46552;52.150;8.428;2023-05-07T17:59:23;18.40;99.90
4435;DHT22;46552;52.150;8.428;2023-05-07T18:01:51;18.30;99.90
4435;DHT22;46552;52.150;8.428;2023-05-07T18:06:46;18.20;99.90
4435;DHT22;46552;52.150;8.428;2023-05-07T18:09:13;18.10;99.90
4435;DHT22;46552;52.150;8.428;2023-05-07T18:14:07;18.00;99.90
4435;DHT22;46552;52.150;8.428;2023-05-07T18:16:36;18.00;99.90
4435;DHT22;46552;52.150;8.428;2023-05-07T18:19:03;17.90;99.90
4435;DHT22;46552;52.150;8.428;2023-05-07T18:21:30;17.90;99.90
4435;DHT22;46552;52.150;8.428;2023-05-07T18:23:57;17.80;99.90
4435;DHT22;46552;52.150;8.428;2023-05-07T18:26:24;17.70;99.90
4435;DHT22;46552;52.150;8.428;2023-05-07T18:28:52;17.70;99.90
4435;DHT22;46552;52.150;8.428;2023-05-07T18:31:19;17.70;99.90
4435;DHT22;46552;52.150;8.428;2023-05-07T18:33:50;17.60;99.90
4435;DHT22;46552;52.150;8.428;2023-05-07T18:36:17;17.50;99.90
4435;DHT22;46552;52.150;8.428;2023-05-07T18:38:44;17.50;99.90
4435;DHT22;46552;52.150;8.428;2023-05-07T18:41:11;17.40;99.90
4435;DHT22;46552;52.150;8.428;2023-05-07T18:43:39;17.30;99.90
4435;DHT22;46552;52.150;8.428;2023-05-07T18:46:06;17.20;99.90
4435;DHT22;46552;52.150;8.428;2023-05-07T18:48:33;17.10;99.90
4435;DHT22;46552;52.150;8.428;2023-05-07T18:51:02;17.00;99.90
4435;DHT22;46552;52.150;8.428;2023-05-07T18:53:29;17.00;99.90
4435;DHT22;46552;52.150;8.428;2023-05-07T18:55:56;16.90;99.90
4435;DHT22;46552;52.150;8.428;2023-05-07T18:58:24;16.80;99.90
4435;DHT22;46552;52.150;8.428;2023-05-07T19:00:52;16.80;99.90
4435;DHT22;46552;52.150;8.428;2023-05-07T19:03:19;16.80;99.90
4435;DHT22;46552;52.150;8.428;2023-05-07T19:05:46;16.70;99.90
4435;DHT22;46552;52.150;8.428;2023-05-07T19:08:16;16.70;99.90
4435;DHT22;46552;52.150;8.428;2023-05-07T19:10:43;16.60;99.90
4435;DHT22;46552;52.150;8.428;2023-05-07T19:15:38;16.50;99.90
4435;DHT22;46552;52.150;8.428;2023-05-07T19:18:05;16.50;99.90
4435;DHT22;46552;52.150;8.428;2023-05-07T19:20:32;16.30;99.90
4435;DHT22;46552;52.150;8.428;2023-05-07T19:22:59;16.40;99.90
4435;DHT22;46552;52.150;8.428;2023-05-07T19:25:29;16.50;99.90
4435;DHT22;46552;52.150;8.428;2023-05-07T19:27:56;16.20;99.90
4435;DHT22;46552;52.150;8.428;2023-05-07T19:30:23;16.30;99.90
4435;DHT22;46552;52.150;8.428;2023-05-07T19:35:18;16.20;99.90
4435;DHT22;46552;52.150;8.428;2023-05-07T19:37:45;15.90;99.90
4435;DHT22;46552;52.150;8.428;2023-05-07T19:40:13;16.10;99.90
4435;DHT22;46552;52.150;8.428;2023-05-07T19:42:42;16.00;99.90
4435;DHT22;46552;52.150;8.428;2023-05-07T19:45:10;16.00;99.90
4435;DHT22;46552;52.150;8.428;2023-05-07T19:47:37;16.00;99.90
4435;DHT22;46552;52.150;8.428;2023-05-07T19:50:05;15.90;99.90